sensor_id;sensor_type;location;lat;lon;timestamp;P1;durP1;ratioP1;P2;durP2;ratioP2
85921;SDS011;76459;41.484;22.090;2024-03-08T00:01:31;33.97;;;18.17;;
85921;SDS011;76459;41.484;22.090;2024-03-08T00:03:57;35.72;;;17.73;;
85921;SDS011;76459;41.484;22.090;2024-03-08T00:06:23;31.25;;;17.85;;
85921;SDS011;76459;41.484;22.090;2024-03-08T00:08:50;27.38;;;15.23;;
85921;SDS011;76459;41.484;22.090;2024-03-08T00:11:16;29.83;;;14.73;;
85921;SDS011;76459;41.484;22.090;2024-03-08T00:13:41;31.40;;;14.98;;
85921;SDS011;76459;41.484;22.090;2024-03-08T00:16:07;35.53;;;15.88;;
85921;SDS011;76459;41.484;22.090;2024-03-08T00:18:34;38.30;;;18.55;;
85921;SDS011;76459;41.484;22.090;2024-03-08T00:21:00;27.30;;;15.70;;
85921;SDS011;76459;41.484;22.090;2024-03-08T00:23:25;30.58;;;15.57;;
85921;SDS011;76459;41.484;22.090;2024-03-08T00:25:51;25.60;;;14.88;;
85921;SDS011;76459;41.484;22.090;2024-03-08T00:28:17;24.02;;;13.07;;
85921;SDS011;76459;41.484;22.090;2024-03-08T00:30:44;23.70;;;12.82;;
85921;SDS011;76459;41.484;22.090;2024-03-08T00:33:10;24.13;;;12.48;;
85921;SDS011;76459;41.484;22.090;2024-03-08T00:35:36;22.20;;;10.85;;
85921;SDS011;76459;41.484;22.090;2024-03-08T00:38:02;21.23;;;10.95;;
85921;SDS011;76459;41.484;22.090;2024-03-08T00:40:28;18.15;;;9.98;;
85921;SDS011;76459;41.484;22.090;2024-03-08T00:42:54;18.38;;;10.02;;
85921;SDS011;76459;41.484;22.090;2024-03-08T00:45:19;18.02;;;9.05;;
85921;SDS011;76459;41.484;22.090;2024-03-08T00:47:45;16.80;;;8.10;;
85921;SDS011;76459;41.484;22.090;2024-03-08T00:50:11;25.27;;;9.43;;
85921;SDS011;76459;41.484;22.090;2024-03-08T00:52:38;21.85;;;9.05;;
85921;SDS011;76459;41.484;22.090;2024-03-08T00:55:04;23.85;;;10.57;;
85921;SDS011;76459;41.484;22.090;2024-03-08T00:57:29;21.70;;;8.40;;
85921;SDS011;76459;41.484;22.090;2024-03-08T00:59:55;12.50;;;7.00;;
85921;SDS011;76459;41.484;22.090;2024-03-08T01:02:21;12.25;;;5.88;;
85921;SDS011;76459;41.484;22.090;2024-03-08T01:04:48;10.35;;;5.07;;
85921;SDS011;76459;41.484;22.090;2024-03-08T01:07:14;11.20;;;5.22;;
85921;SDS011;76459;41.484;22.090;2024-03-08T01:09:39;8.05;;;4.22;;
85921;SDS011;76459;41.484;22.090;2024-03-08T01:12:05;9.98;;;4.40;;
85921;SDS011;76459;41.484;22.090;2024-03-08T01:14:32;13.07;;;4.07;;
85921;SDS011;76459;41.484;22.090;2024-03-08T01:16:58;19.85;;;6.03;;
85921;SDS011;76459;41.484;22.090;2024-03-08T01:19:24;12.15;;;5.72;;
85921;SDS011;76459;41.484;22.090;2024-03-08T01:21:50;15.55;;;6.25;;
85921;SDS011;76459;41.484;22.090;2024-03-08T01:24:16;13.23;;;6.95;;
85921;SDS011;76459;41.484;22.090;2024-03-08T01:26:42;12.02;;;6.57;;
85921;SDS011;76459;41.484;22.090;2024-03-08T01:29:07;19.42;;;7.05;;
85921;SDS011;76459;41.484;22.090;2024-03-08T01:31:33;13.20;;;6.68;;
85921;SDS011;76459;41.484;22.090;2024-03-08T01:33:59;16.35;;;5.95;;
85921;SDS011;76459;41.484;22.090;2024-03-08T01:36:25;12.30;;;6.57;;
85921;SDS011;76459;41.484;22.090;2024-03-08T01:38:51;14.10;;;6.80;;
85921;SDS011;76459;41.484;22.090;2024-03-08T01:41:17;14.85;;;8.43;;
85921;SDS011;76459;41.484;22.090;2024-03-08T01:43:43;18.35;;;10.90;;
85921;SDS011;76459;41.484;22.090;2024-03-08T01:46:09;18.25;;;11.48;;
85921;SDS011;76459;41.484;22.090;2024-03-08T01:48:38;17.08;;;11.02;;
85921;SDS011;76459;41.484;22.090;2024-03-08T01:51:06;16.65;;;9.85;;
85921;SDS011;76459;41.484;22.090;2024-03-08T01:53:32;12.80;;;8.35;;
85921;SDS011;76459;41.484;22.090;2024-03-08T01:55:58;19.52;;;9.80;;
85921;SDS011;76459;41.484;22.090;2024-03-08T01:58:28;15.52;;;8.05;;
85921;SDS011;76459;41.484;22.090;2024-03-08T02:00:56;12.35;;;8.50;;
85921;SDS011;76459;41.484;22.090;2024-03-08T02:03:23;20.58;;;12.43;;
85921;SDS011;76459;41.484;22.090;2024-03-08T02:05:49;16.52;;;11.55;;
85921;SDS011;76459;41.484;22.090;2024-03-08T02:08:16;17.85;;;10.68;;
85921;SDS011;76459;41.484;22.090;2024-03-08T02:10:46;20.70;;;10.73;;
85921;SDS011;76459;41.484;22.090;2024-03-08T02:13:12;24.83;;;11.02;;
85921;SDS011;76459;41.484;22.090;2024-03-08T02:15:55;15.50;;;8.15;;
85921;SDS011;76459;41.484;22.090;2024-03-08T02:18:24;17.55;;;8.13;;
85921;SDS011;76459;41.484;22.090;2024-03-08T02:20:51;15.50;;;7.93;;
85921;SDS011;76459;41.484;22.090;2024-03-08T02:23:20;18.27;;;8.95;;
85921;SDS011;76459;41.484;22.090;2024-03-08T02:25:47;15.05;;;8.55;;
85921;SDS011;76459;41.484;22.090;2024-03-08T02:28:13;14.90;;;8.05;;
85921;SDS011;76459;41.484;22.090;2024-03-08T02:30:39;15.48;;;8.95;;
85921;SDS011;76459;41.484;22.090;2024-03-08T02:33:05;22.50;;;10.68;;
85921;SDS011;76459;41.484;22.090;2024-03-08T02:35:32;12.02;;;6.97;;
85921;SDS011;76459;41.484;22.090;2024-03-08T02:37:58;12.90;;;6.88;;
85921;SDS011;76459;41.484;22.090;2024-03-08T02:40:24;14.07;;;6.68;;
85921;SDS011;76459;41.484;22.090;2024-03-08T02:42:49;16.20;;;8.48;;
85921;SDS011;76459;41.484;22.090;2024-03-08T02:45:15;14.77;;;8.07;;
85921;SDS011;76459;41.484;22.090;2024-03-08T02:47:40;13.73;;;7.65;;
85921;SDS011;76459;41.484;22.090;2024-03-08T02:50:06;11.55;;;7.07;;
85921;SDS011;76459;41.484;22.090;2024-03-08T02:52:37;12.25;;;6.38;;
85921;SDS011;76459;41.484;22.090;2024-03-08T02:55:03;11.93;;;6.32;;
85921;SDS011;76459;41.484;22.090;2024-03-08T02:57:31;9.75;;;5.65;;
85921;SDS011;76459;41.484;22.090;2024-03-08T02:59:57;14.63;;;7.10;;
85921;SDS011;76459;41.484;22.090;2024-03-08T03:02:25;19.75;;;6.95;;
85921;SDS011;76459;41.484;22.090;2024-03-08T03:04:52;15.10;;;7.20;;
85921;SDS011;76459;41.484;22.090;2024-03-08T03:07:18;12.68;;;7.55;;
85921;SDS011;76459;41.484;22.090;2024-03-08T03:09:44;13.15;;;7.70;;
85921;SDS011;76459;41.484;22.090;2024-03-08T03:12:10;13.40;;;8.30;;
85921;SDS011;76459;41.484;22.090;2024-03-08T03:14:36;12.95;;;8.70;;
85921;SDS011;76459;41.484;22.090;2024-03-08T03:17:04;23.38;;;8.75;;
85921;SDS011;76459;41.484;22.090;2024-03-08T03:19:30;18.80;;;9.27;;
85921;SDS011;76459;41.484;22.090;2024-03-08T03:21:56;18.63;;;7.22;;
85921;SDS011;76459;41.484;22.090;2024-03-08T03:24:22;21.15;;;8.07;;
85921;SDS011;76459;41.484;22.090;2024-03-08T03:26:48;13.75;;;5.72;;
85921;SDS011;76459;41.484;22.090;2024-03-08T03:29:15;12.32;;;6.13;;
85921;SDS011;76459;41.484;22.090;2024-03-08T03:31:42;15.00;;;6.57;;
85921;SDS011;76459;41.484;22.090;2024-03-08T03:34:12;10.30;;;5.28;;
85921;SDS011;76459;41.484;22.090;2024-03-08T03:36:38;6.38;;;3.97;;
85921;SDS011;76459;41.484;22.090;2024-03-08T03:39:08;8.50;;;3.88;;
85921;SDS011;76459;41.484;22.090;2024-03-08T03:41:41;8.45;;;3.88;;
85921;SDS011;76459;41.484;22.090;2024-03-08T03:44:09;5.20;;;3.53;;
85921;SDS011;76459;41.484;22.090;2024-03-08T03:46:35;4.60;;;3.10;;
85921;SDS011;76459;41.484;22.090;2024-03-08T03:49:00;6.53;;;4.03;;
85921;SDS011;76459;41.484;22.090;2024-03-08T03:51:26;8.05;;;3.55;;
85921;SDS011;76459;41.484;22.090;2024-03-08T03:53:52;7.50;;;3.70;;
85921;SDS011;76459;41.484;22.090;2024-03-08T03:56:18;6.78;;;4.13;;
85921;SDS011;76459;41.484;22.090;2024-03-08T03:58:44;15.95;;;5.07;;
85921;SDS011;76459;41.484;22.090;2024-03-08T04:01:10;14.98;;;6.30;;
85921;SDS011;76459;41.484;22.090;2024-03-08T04:03:35;12.55;;;6.43;;
85921;SDS011;76459;41.484;22.090;2024-03-08T04:06:03;14.80;;;6.22;;
85921;SDS011;76459;41.484;22.090;2024-03-08T04:08:29;16.88;;;7.82;;
85921;SDS011;76459;41.484;22.090;2024-03-08T04:10:55;27.08;;;7.82;;
85921;SDS011;76459;41.484;22.090;2024-03-08T04:13:21;15.77;;;6.82;;
85921;SDS011;76459;41.484;22.090;2024-03-08T04:15:46;19.17;;;7.55;;
85921;SDS011;76459;41.484;22.090;2024-03-08T04:18:14;26.60;;;8.52;;
85921;SDS011;76459;41.484;22.090;2024-03-08T04:20:40;17.98;;;7.43;;
85921;SDS011;76459;41.484;22.090;2024-03-08T04:23:06;23.23;;;8.65;;
85921;SDS011;76459;41.484;22.090;2024-03-08T04:25:32;21.67;;;6.90;;
85921;SDS011;76459;41.484;22.090;2024-03-08T04:27:58;13.27;;;6.18;;
85921;SDS011;76459;41.484;22.090;2024-03-08T04:30:24;12.63;;;6.28;;
85921;SDS011;76459;41.484;22.090;2024-03-08T04:32:50;16.75;;;6.05;;
85921;SDS011;76459;41.484;22.090;2024-03-08T04:35:15;11.25;;;6.03;;
85921;SDS011;76459;41.484;22.090;2024-03-08T04:37:41;13.57;;;5.22;;
85921;SDS011;76459;41.484;22.090;2024-03-08T04:40:07;9.85;;;5.25;;
85921;SDS011;76459;41.484;22.090;2024-03-08T04:42:33;9.15;;;5.55;;
85921;SDS011;76459;41.484;22.090;2024-03-08T04:45:00;22.33;;;8.00;;
85921;SDS011;76459;41.484;22.090;2024-03-08T04:47:26;16.85;;;6.65;;
85921;SDS011;76459;41.484;22.090;2024-03-08T04:49:52;18.38;;;6.20;;
85921;SDS011;76459;41.484;22.090;2024-03-08T04:52:18;13.55;;;6.10;;
85921;SDS011;76459;41.484;22.090;2024-03-08T04:54:43;21.13;;;6.05;;
85921;SDS011;76459;41.484;22.090;2024-03-08T04:57:12;11.60;;;4.60;;
85921;SDS011;76459;41.484;22.090;2024-03-08T04:59:37;18.98;;;4.85;;
85921;SDS011;76459;41.484;22.090;2024-03-08T05:02:03;19.33;;;6.43;;
85921;SDS011;76459;41.484;22.090;2024-03-08T05:04:29;19.35;;;7.10;;
85921;SDS011;76459;41.484;22.090;2024-03-08T05:06:55;17.00;;;6.03;;
85921;SDS011;76459;41.484;22.090;2024-03-08T05:09:20;17.20;;;7.80;;
85921;SDS011;76459;41.484;22.090;2024-03-08T05:11:46;20.88;;;8.13;;
85921;SDS011;76459;41.484;22.090;2024-03-08T05:14:13;28.67;;;10.60;;
85921;SDS011;76459;41.484;22.090;2024-03-08T05:16:45;17.15;;;8.00;;
85921;SDS011;76459;41.484;22.090;2024-03-08T05:19:15;23.33;;;9.40;;
85921;SDS011;76459;41.484;22.090;2024-03-08T05:21:47;23.98;;;8.50;;
85921;SDS011;76459;41.484;22.090;2024-03-08T05:24:14;12.80;;;6.25;;
85921;SDS011;76459;41.484;22.090;2024-03-08T05:26:41;27.35;;;8.63;;
85921;SDS011;76459;41.484;22.090;2024-03-08T05:29:07;22.55;;;8.88;;
85921;SDS011;76459;41.484;22.090;2024-03-08T05:31:36;19.35;;;7.43;;
85921;SDS011;76459;41.484;22.090;2024-03-08T05:34:11;19.58;;;7.45;;
85921;SDS011;76459;41.484;22.090;2024-03-08T05:36:40;50.83;;;8.85;;
85921;SDS011;76459;41.484;22.090;2024-03-08T05:39:10;27.67;;;5.88;;
85921;SDS011;76459;41.484;22.090;2024-03-08T05:41:37;22.90;;;6.63;;
85921;SDS011;76459;41.484;22.090;2024-03-08T05:44:04;25.30;;;8.43;;
85921;SDS011;76459;41.484;22.090;2024-03-08T05:46:30;28.55;;;7.75;;
85921;SDS011;76459;41.484;22.090;2024-03-08T05:48:56;16.67;;;6.70;;
85921;SDS011;76459;41.484;22.090;2024-03-08T05:51:23;32.35;;;8.82;;
85921;SDS011;76459;41.484;22.090;2024-03-08T05:53:51;31.05;;;9.95;;
85921;SDS011;76459;41.484;22.090;2024-03-08T05:56:18;33.03;;;13.13;;
85921;SDS011;76459;41.484;22.090;2024-03-08T05:58:44;38.78;;;17.35;;
85921;SDS011;76459;41.484;22.090;2024-03-08T06:01:11;40.22;;;17.30;;
85921;SDS011;76459;41.484;22.090;2024-03-08T06:03:38;44.65;;;19.45;;
85921;SDS011;76459;41.484;22.090;2024-03-08T06:06:13;72.40;;;27.60;;
85921;SDS011;76459;41.484;22.090;2024-03-08T06:08:40;55.63;;;25.48;;
85921;SDS011;76459;41.484;22.090;2024-03-08T06:11:08;61.05;;;23.15;;
85921;SDS011;76459;41.484;22.090;2024-03-08T06:13:34;58.58;;;23.80;;
85921;SDS011;76459;41.484;22.090;2024-03-08T06:16:00;51.60;;;22.25;;
85921;SDS011;76459;41.484;22.090;2024-03-08T06:18:32;42.15;;;19.67;;
85921;SDS011;76459;41.484;22.090;2024-03-08T06:20:58;40.22;;;17.15;;
85921;SDS011;76459;41.484;22.090;2024-03-08T06:23:23;34.78;;;15.90;;
85921;SDS011;76459;41.484;22.090;2024-03-08T06:25:49;41.15;;;17.02;;
85921;SDS011;76459;41.484;22.090;2024-03-08T06:28:14;40.63;;;16.77;;
85921;SDS011;76459;41.484;22.090;2024-03-08T06:30:40;43.58;;;15.68;;
85921;SDS011;76459;41.484;22.090;2024-03-08T06:33:06;43.00;;;13.20;;
85921;SDS011;76459;41.484;22.090;2024-03-08T06:35:36;40.03;;;13.43;;
85921;SDS011;76459;41.484;22.090;2024-03-08T06:38:03;34.40;;;10.10;;
85921;SDS011;76459;41.484;22.090;2024-03-08T06:40:30;40.08;;;13.02;;
85921;SDS011;76459;41.484;22.090;2024-03-08T06:42:55;30.85;;;11.70;;
85921;SDS011;76459;41.484;22.090;2024-03-08T06:45:21;33.42;;;12.13;;
85921;SDS011;76459;41.484;22.090;2024-03-08T06:47:48;31.92;;;9.82;;
85921;SDS011;76459;41.484;22.090;2024-03-08T06:50:14;27.30;;;8.65;;
85921;SDS011;76459;41.484;22.090;2024-03-08T06:52:40;28.17;;;8.50;;
85921;SDS011;76459;41.484;22.090;2024-03-08T06:55:11;19.38;;;7.57;;
85921;SDS011;76459;41.484;22.090;2024-03-08T06:57:40;19.80;;;6.82;;
85921;SDS011;76459;41.484;22.090;2024-03-08T07:00:07;20.15;;;6.28;;
85921;SDS011;76459;41.484;22.090;2024-03-08T07:02:40;16.25;;;5.63;;
85921;SDS011;76459;41.484;22.090;2024-03-08T07:05:07;9.82;;;6.15;;
85921;SDS011;76459;41.484;22.090;2024-03-08T07:07:35;17.13;;;6.07;;
85921;SDS011;76459;41.484;22.090;2024-03-08T07:10:02;27.02;;;13.32;;
85921;SDS011;76459;41.484;22.090;2024-03-08T07:12:28;32.63;;;11.48;;
85921;SDS011;76459;41.484;22.090;2024-03-08T07:14:53;21.25;;;9.68;;
85921;SDS011;76459;41.484;22.090;2024-03-08T07:17:19;43.08;;;10.75;;
85921;SDS011;76459;41.484;22.090;2024-03-08T07:19:45;24.20;;;10.10;;
85921;SDS011;76459;41.484;22.090;2024-03-08T07:22:10;23.98;;;8.75;;
85921;SDS011;76459;41.484;22.090;2024-03-08T07:24:36;23.83;;;6.43;;
85921;SDS011;76459;41.484;22.090;2024-03-08T07:27:02;15.25;;;5.93;;
85921;SDS011;76459;41.484;22.090;2024-03-08T07:29:30;14.93;;;6.60;;
85921;SDS011;76459;41.484;22.090;2024-03-08T07:32:01;24.20;;;9.23;;
85921;SDS011;76459;41.484;22.090;2024-03-08T07:34:43;21.38;;;7.00;;
85921;SDS011;76459;41.484;22.090;2024-03-08T07:37:09;17.35;;;6.60;;
85921;SDS011;76459;41.484;22.090;2024-03-08T07:39:37;22.88;;;12.57;;
85921;SDS011;76459;41.484;22.090;2024-03-08T07:42:04;14.93;;;8.65;;
85921;SDS011;76459;41.484;22.090;2024-03-08T07:44:30;22.67;;;8.13;;
85921;SDS011;76459;41.484;22.090;2024-03-08T07:46:57;18.48;;;9.38;;
85921;SDS011;76459;41.484;22.090;2024-03-08T07:49:23;25.45;;;8.70;;
85921;SDS011;76459;41.484;22.090;2024-03-08T07:51:49;15.23;;;7.55;;
85921;SDS011;76459;41.484;22.090;2024-03-08T07:54:15;23.17;;;6.82;;
85921;SDS011;76459;41.484;22.090;2024-03-08T07:56:40;17.70;;;6.38;;
85921;SDS011;76459;41.484;22.090;2024-03-08T07:59:07;15.18;;;5.35;;
85921;SDS011;76459;41.484;22.090;2024-03-08T08:01:33;15.27;;;5.28;;
85921;SDS011;76459;41.484;22.090;2024-03-08T08:03:59;11.35;;;5.07;;
85921;SDS011;76459;41.484;22.090;2024-03-08T08:06:28;13.88;;;5.25;;
85921;SDS011;76459;41.484;22.090;2024-03-08T08:08:57;12.32;;;5.35;;
85921;SDS011;76459;41.484;22.090;2024-03-08T08:11:22;12.98;;;4.57;;
85921;SDS011;76459;41.484;22.090;2024-03-08T08:13:51;19.42;;;5.78;;
85921;SDS011;76459;41.484;22.090;2024-03-08T08:16:16;19.08;;;5.57;;
85921;SDS011;76459;41.484;22.090;2024-03-08T08:18:42;19.83;;;4.78;;
85921;SDS011;76459;41.484;22.090;2024-03-08T08:21:07;8.60;;;4.38;;
85921;SDS011;76459;41.484;22.090;2024-03-08T08:23:33;20.25;;;5.10;;
85921;SDS011;76459;41.484;22.090;2024-03-08T08:25:59;8.02;;;4.20;;
85921;SDS011;76459;41.484;22.090;2024-03-08T08:28:26;15.73;;;5.40;;
85921;SDS011;76459;41.484;22.090;2024-03-08T08:30:52;13.02;;;3.88;;
85921;SDS011;76459;41.484;22.090;2024-03-08T08:33:17;9.20;;;4.30;;
85921;SDS011;76459;41.484;22.090;2024-03-08T08:35:43;7.38;;;4.40;;
85921;SDS011;76459;41.484;22.090;2024-03-08T08:38:08;10.60;;;4.97;;
85921;SDS011;76459;41.484;22.090;2024-03-08T08:40:34;12.93;;;5.63;;
85921;SDS011;76459;41.484;22.090;2024-03-08T08:43:01;16.83;;;5.82;;
85921;SDS011;76459;41.484;22.090;2024-03-08T08:45:29;10.80;;;4.30;;
85921;SDS011;76459;41.484;22.090;2024-03-08T08:47:59;9.10;;;4.68;;
85921;SDS011;76459;41.484;22.090;2024-03-08T08:50:25;10.30;;;4.45;;
85921;SDS011;76459;41.484;22.090;2024-03-08T08:52:52;10.00;;;4.38;;
85921;SDS011;76459;41.484;22.090;2024-03-08T08:55:18;8.38;;;4.32;;
85921;SDS011;76459;41.484;22.090;2024-03-08T08:57:46;18.70;;;5.00;;
85921;SDS011;76459;41.484;22.090;2024-03-08T09:00:13;13.07;;;4.05;;
85921;SDS011;76459;41.484;22.090;2024-03-08T09:02:41;8.38;;;3.42;;
85921;SDS011;76459;41.484;22.090;2024-03-08T09:05:07;9.18;;;5.03;;
85921;SDS011;76459;41.484;22.090;2024-03-08T09:07:36;11.75;;;5.22;;
85921;SDS011;76459;41.484;22.090;2024-03-08T09:10:03;11.00;;;4.97;;
85921;SDS011;76459;41.484;22.090;2024-03-08T09:12:29;8.98;;;3.95;;
85921;SDS011;76459;41.484;22.090;2024-03-08T09:14:54;8.50;;;3.72;;
85921;SDS011;76459;41.484;22.090;2024-03-08T09:17:20;9.07;;;3.75;;
85921;SDS011;76459;41.484;22.090;2024-03-08T09:19:49;7.93;;;4.32;;
85921;SDS011;76459;41.484;22.090;2024-03-08T09:22:15;10.50;;;4.25;;
85921;SDS011;76459;41.484;22.090;2024-03-08T09:24:41;8.13;;;4.45;;
85921;SDS011;76459;41.484;22.090;2024-03-08T09:27:08;12.10;;;4.82;;
85921;SDS011;76459;41.484;22.090;2024-03-08T09:29:35;8.27;;;4.32;;
85921;SDS011;76459;41.484;22.090;2024-03-08T09:32:00;7.97;;;4.50;;
85921;SDS011;76459;41.484;22.090;2024-03-08T09:34:26;8.93;;;4.10;;
85921;SDS011;76459;41.484;22.090;2024-03-08T09:36:52;10.65;;;4.10;;
85921;SDS011;76459;41.484;22.090;2024-03-08T09:39:18;12.45;;;4.75;;
85921;SDS011;76459;41.484;22.090;2024-03-08T09:41:46;6.20;;;3.55;;
85921;SDS011;76459;41.484;22.090;2024-03-08T09:44:15;6.90;;;4.32;;
85921;SDS011;76459;41.484;22.090;2024-03-08T09:46:41;9.85;;;3.38;;
85921;SDS011;76459;41.484;22.090;2024-03-08T09:49:07;4.18;;;2.70;;
85921;SDS011;76459;41.484;22.090;2024-03-08T09:51:34;10.82;;;4.00;;
85921;SDS011;76459;41.484;22.090;2024-03-08T09:54:05;6.32;;;3.13;;
85921;SDS011;76459;41.484;22.090;2024-03-08T09:56:37;6.93;;;3.47;;
85921;SDS011;76459;41.484;22.090;2024-03-08T09:59:06;8.40;;;3.65;;
85921;SDS011;76459;41.484;22.090;2024-03-08T10:01:51;6.95;;;3.55;;
85921;SDS011;76459;41.484;22.090;2024-03-08T10:04:24;10.40;;;2.95;;
85921;SDS011;76459;41.484;22.090;2024-03-08T10:06:51;9.25;;;3.83;;
85921;SDS011;76459;41.484;22.090;2024-03-08T10:09:17;6.82;;;2.97;;
85921;SDS011;76459;41.484;22.090;2024-03-08T10:11:44;9.30;;;4.07;;
85921;SDS011;76459;41.484;22.090;2024-03-08T10:14:10;16.48;;;4.30;;
85921;SDS011;76459;41.484;22.090;2024-03-08T10:16:37;11.07;;;4.53;;
85921;SDS011;76459;41.484;22.090;2024-03-08T10:19:04;18.75;;;4.38;;
85921;SDS011;76459;41.484;22.090;2024-03-08T10:21:31;10.88;;;3.83;;
85921;SDS011;76459;41.484;22.090;2024-03-08T10:23:58;4.93;;;3.40;;
85921;SDS011;76459;41.484;22.090;2024-03-08T10:26:24;7.72;;;4.20;;
85921;SDS011;76459;41.484;22.090;2024-03-08T10:28:51;4.40;;;3.03;;
85921;SDS011;76459;41.484;22.090;2024-03-08T10:31:20;5.30;;;2.85;;
85921;SDS011;76459;41.484;22.090;2024-03-08T10:33:47;7.80;;;3.25;;
85921;SDS011;76459;41.484;22.090;2024-03-08T10:36:13;10.05;;;4.03;;
85921;SDS011;76459;41.484;22.090;2024-03-08T10:38:40;9.77;;;4.50;;
85921;SDS011;76459;41.484;22.090;2024-03-08T10:41:11;8.50;;;3.15;;
85921;SDS011;76459;41.484;22.090;2024-03-08T10:43:50;8.02;;;3.80;;
85921;SDS011;76459;41.484;22.090;2024-03-08T10:47:00;5.32;;;2.50;;
85921;SDS011;76459;41.484;22.090;2024-03-08T10:49:31;6.57;;;2.50;;
85921;SDS011;76459;41.484;22.090;2024-03-08T10:52:04;4.63;;;2.75;;
85921;SDS011;76459;41.484;22.090;2024-03-08T10:54:33;4.80;;;2.33;;
85921;SDS011;76459;41.484;22.090;2024-03-08T10:57:03;7.20;;;2.75;;
85921;SDS011;76459;41.484;22.090;2024-03-08T10:59:31;7.20;;;3.05;;
85921;SDS011;76459;41.484;22.090;2024-03-08T11:01:59;7.88;;;2.65;;
85921;SDS011;76459;41.484;22.090;2024-03-08T11:04:25;5.40;;;2.72;;
85921;SDS011;76459;41.484;22.090;2024-03-08T11:06:51;9.75;;;4.72;;
85921;SDS011;76459;41.484;22.090;2024-03-08T11:09:31;6.80;;;2.83;;
85921;SDS011;76459;41.484;22.090;2024-03-08T11:12:19;5.55;;;2.50;;
85921;SDS011;76459;41.484;22.090;2024-03-08T11:14:52;6.53;;;3.38;;
85921;SDS011;76459;41.484;22.090;2024-03-08T11:17:25;9.38;;;4.43;;
85921;SDS011;76459;41.484;22.090;2024-03-08T11:19:52;11.32;;;3.50;;
85921;SDS011;76459;41.484;22.090;2024-03-08T11:22:22;7.07;;;3.05;;
85921;SDS011;76459;41.484;22.090;2024-03-08T11:24:52;4.82;;;2.75;;
85921;SDS011;76459;41.484;22.090;2024-03-08T11:27:18;7.15;;;2.33;;
85921;SDS011;76459;41.484;22.090;2024-03-08T11:29:59;3.75;;;2.75;;
85921;SDS011;76459;41.484;22.090;2024-03-08T11:32:36;6.75;;;2.50;;
85921;SDS011;76459;41.484;22.090;2024-03-08T11:35:06;9.35;;;2.95;;
85921;SDS011;76459;41.484;22.090;2024-03-08T11:37:44;7.72;;;2.58;;
85921;SDS011;76459;41.484;22.090;2024-03-08T11:40:14;6.22;;;2.85;;
85921;SDS011;76459;41.484;22.090;2024-03-08T11:42:48;4.38;;;2.70;;
85921;SDS011;76459;41.484;22.090;2024-03-08T11:45:14;5.00;;;2.20;;
85921;SDS011;76459;41.484;22.090;2024-03-08T11:47:42;8.15;;;2.80;;
85921;SDS011;76459;41.484;22.090;2024-03-08T11:50:14;6.88;;;2.20;;
85921;SDS011;76459;41.484;22.090;2024-03-08T11:52:41;8.32;;;3.72;;
85921;SDS011;76459;41.484;22.090;2024-03-08T11:55:08;6.72;;;3.10;;
85921;SDS011;76459;41.484;22.090;2024-03-08T11:57:33;6.35;;;2.53;;
85921;SDS011;76459;41.484;22.090;2024-03-08T11:59:59;5.55;;;2.63;;
85921;SDS011;76459;41.484;22.090;2024-03-08T12:02:34;7.00;;;2.95;;
85921;SDS011;76459;41.484;22.090;2024-03-08T12:05:06;9.77;;;3.45;;
85921;SDS011;76459;41.484;22.090;2024-03-08T12:07:34;6.88;;;3.22;;
85921;SDS011;76459;41.484;22.090;2024-03-08T12:10:19;9.75;;;4.00;;
85921;SDS011;76459;41.484;22.090;2024-03-08T12:12:48;6.50;;;4.00;;
85921;SDS011;76459;41.484;22.090;2024-03-08T12:15:16;4.82;;;3.20;;
85921;SDS011;76459;41.484;22.090;2024-03-08T12:17:44;9.63;;;2.70;;
85921;SDS011;76459;41.484;22.090;2024-03-08T12:20:20;10.73;;;3.25;;
85921;SDS011;76459;41.484;22.090;2024-03-08T12:22:51;5.28;;;2.88;;
85921;SDS011;76459;41.484;22.090;2024-03-08T12:25:27;3.88;;;2.10;;
85921;SDS011;76459;41.484;22.090;2024-03-08T12:27:56;7.93;;;2.78;;
85921;SDS011;76459;41.484;22.090;2024-03-08T12:30:32;10.63;;;3.88;;
85921;SDS011;76459;41.484;22.090;2024-03-08T12:32:59;6.25;;;2.60;;
85921;SDS011;76459;41.484;22.090;2024-03-08T12:35:26;12.32;;;3.08;;
85921;SDS011;76459;41.484;22.090;2024-03-08T12:37:54;7.35;;;3.17;;
85921;SDS011;76459;41.484;22.090;2024-03-08T12:40:27;5.57;;;2.90;;
85921;SDS011;76459;41.484;22.090;2024-03-08T12:42:58;7.20;;;2.38;;
85921;SDS011;76459;41.484;22.090;2024-03-08T12:45:24;4.70;;;2.78;;
85921;SDS011;76459;41.484;22.090;2024-03-08T12:47:53;5.10;;;2.97;;
85921;SDS011;76459;41.484;22.090;2024-03-08T12:52:50;17.40;;;4.25;;
85921;SDS011;76459;41.484;22.090;2024-03-08T12:55:18;4.63;;;2.92;;
85921;SDS011;76459;41.484;22.090;2024-03-08T12:57:44;17.23;;;5.70;;
85921;SDS011;76459;41.484;22.090;2024-03-08T13:00:10;10.07;;;4.40;;
85921;SDS011;76459;41.484;22.090;2024-03-08T13:02:45;10.82;;;4.80;;
85921;SDS011;76459;41.484;22.090;2024-03-08T13:05:12;11.75;;;3.33;;
85921;SDS011;76459;41.484;22.090;2024-03-08T13:07:39;8.05;;;3.53;;
85921;SDS011;76459;41.484;22.090;2024-03-08T13:10:11;6.72;;;3.30;;
85921;SDS011;76459;41.484;22.090;2024-03-08T13:12:42;9.38;;;2.40;;
85921;SDS011;76459;41.484;22.090;2024-03-08T13:15:08;10.43;;;4.00;;
85921;SDS011;76459;41.484;22.090;2024-03-08T13:17:45;6.00;;;3.50;;
85921;SDS011;76459;41.484;22.090;2024-03-08T13:20:13;5.95;;;2.60;;
85921;SDS011;76459;41.484;22.090;2024-03-08T13:22:45;7.85;;;3.78;;
85921;SDS011;76459;41.484;22.090;2024-03-08T13:25:12;6.28;;;2.63;;
85921;SDS011;76459;41.484;22.090;2024-03-08T13:27:41;9.15;;;3.00;;
85921;SDS011;76459;41.484;22.090;2024-03-08T13:30:11;6.75;;;2.90;;
85921;SDS011;76459;41.484;22.090;2024-03-08T13:32:39;9.82;;;4.15;;
85921;SDS011;76459;41.484;22.090;2024-03-08T13:35:05;6.75;;;2.55;;
85921;SDS011;76459;41.484;22.090;2024-03-08T13:37:40;9.50;;;3.22;;
85921;SDS011;76459;41.484;22.090;2024-03-08T13:40:07;6.82;;;3.30;;
85921;SDS011;76459;41.484;22.090;2024-03-08T13:42:38;5.22;;;2.53;;
85921;SDS011;76459;41.484;22.090;2024-03-08T13:45:05;13.38;;;3.60;;
85921;SDS011;76459;41.484;22.090;2024-03-08T13:49:59;8.90;;;3.85;;
85921;SDS011;76459;41.484;22.090;2024-03-08T13:52:26;14.40;;;4.13;;
85921;SDS011;76459;41.484;22.090;2024-03-08T13:54:54;4.63;;;2.30;;
85921;SDS011;76459;41.484;22.090;2024-03-08T13:57:20;12.20;;;3.63;;
85921;SDS011;76459;41.484;22.090;2024-03-08T13:59:48;8.45;;;3.67;;
85921;SDS011;76459;41.484;22.090;2024-03-08T14:02:16;11.98;;;3.75;;
85921;SDS011;76459;41.484;22.090;2024-03-08T14:04:42;10.70;;;3.53;;
85921;SDS011;76459;41.484;22.090;2024-03-08T14:07:08;8.82;;;4.18;;
85921;SDS011;76459;41.484;22.090;2024-03-08T14:09:34;6.60;;;3.00;;
85921;SDS011;76459;41.484;22.090;2024-03-08T14:12:07;7.93;;;2.75;;
85921;SDS011;76459;41.484;22.090;2024-03-08T14:14:33;8.57;;;3.28;;
85921;SDS011;76459;41.484;22.090;2024-03-08T14:17:01;7.60;;;2.90;;
85921;SDS011;76459;41.484;22.090;2024-03-08T14:19:28;8.75;;;3.00;;
85921;SDS011;76459;41.484;22.090;2024-03-08T14:21:56;18.08;;;3.90;;
85921;SDS011;76459;41.484;22.090;2024-03-08T14:24:24;6.60;;;2.90;;
85921;SDS011;76459;41.484;22.090;2024-03-08T14:26:50;7.03;;;3.75;;
85921;SDS011;76459;41.484;22.090;2024-03-08T14:29:16;5.93;;;3.35;;
85921;SDS011;76459;41.484;22.090;2024-03-08T14:31:43;8.93;;;4.13;;